createdAt,value
2017-11-13T00:01:01.784Z,7.60
2017-11-13T00:03:29.244Z,4.40
2017-11-13T00:05:56.712Z,7.13
2017-11-13T00:08:24.928Z,6.33
2017-11-13T00:10:52.408Z,14.30
2017-11-13T00:13:19.867Z,6.80
2017-11-13T00:15:47.338Z,6.83
2017-11-13T00:18:15.571Z,6.30
2017-11-13T00:20:43.036Z,8.47
2017-11-13T00:23:10.515Z,6.67
2017-11-13T00:25:37.973Z,5.60
2017-11-13T00:28:05.456Z,9.67
2017-11-13T00:30:32.907Z,12.60
2017-11-13T00:33:00.401Z,9.00
2017-11-13T00:35:27.852Z,6.37
2017-11-13T00:37:55.312Z,7.97
2017-11-13T00:40:22.797Z,4.43
2017-11-13T00:42:50.253Z,6.10
2017-11-13T00:45:17.705Z,9.20
2017-11-13T00:47:45.172Z,7.10
2017-11-13T00:50:12.639Z,9.03
2017-11-13T00:52:40.121Z,15.40
2017-11-13T00:55:08.343Z,11.13
2017-11-13T00:57:35.816Z,9.50
2017-11-13T01:00:03.277Z,5.90
2017-11-13T01:02:30.747Z,11.33
2017-11-13T01:04:58.234Z,13.17
2017-11-13T01:07:26.468Z,6.90
2017-11-13T01:09:53.937Z,7.13
2017-11-13T01:12:21.390Z,9.60
2017-11-13T01:14:48.875Z,4.50
2017-11-13T01:17:17.102Z,13.20
2017-11-13T01:19:44.563Z,8.73
2017-11-13T01:22:12.037Z,6.90
2017-11-13T01:24:39.496Z,5.93
2017-11-13T01:27:06.967Z,14.73
2017-11-13T01:29:35.213Z,5.27
2017-11-13T01:32:02.685Z,7.33
2017-11-13T01:34:30.900Z,9.17
2017-11-13T01:36:58.372Z,5.47
2017-11-13T01:39:25.845Z,5.70
2017-11-13T01:41:53.302Z,5.53
2017-11-13T01:44:20.774Z,10.53
2017-11-13T01:46:48.250Z,8.07
2017-11-13T01:49:15.713Z,6.77
2017-11-13T01:51:43.954Z,3.87
2017-11-13T01:54:11.789Z,6.17
2017-11-13T01:56:39.283Z,6.57
2017-11-13T01:59:06.739Z,8.30
2017-11-13T02:01:35.815Z,12.40
2017-11-13T02:04:03.294Z,9.33
2017-11-13T02:06:30.752Z,9.47
2017-11-13T02:08:58.219Z,8.73
2017-11-13T02:11:25.721Z,6.70
2017-11-13T02:13:53.172Z,9.80
2017-11-13T02:16:20.665Z,12.93
2017-11-13T02:18:48.124Z,6.33
2017-11-13T02:21:15.571Z,8.83
2017-11-13T02:23:43.055Z,12.53
2017-11-13T02:26:10.504Z,12.47
2017-11-13T02:28:37.975Z,5.97
2017-11-13T02:31:06.200Z,7.37
2017-11-13T02:33:33.675Z,6.63
2017-11-13T02:36:01.127Z,7.23
2017-11-13T02:38:28.599Z,10.00
2017-11-13T02:40:56.839Z,6.13
2017-11-13T02:43:24.336Z,7.93
2017-11-13T02:45:52.565Z,6.43
2017-11-13T02:48:20.025Z,4.00
2017-11-13T02:50:47.497Z,4.50
2017-11-13T02:53:14.961Z,7.47
2017-11-13T02:55:42.439Z,7.33
2017-11-13T02:58:09.896Z,5.40
2017-11-13T03:00:37.374Z,10.53
2017-11-13T03:03:04.829Z,9.87
2017-11-13T03:05:33.064Z,4.93
2017-11-13T03:08:00.528Z,11.53
2017-11-13T03:10:27.987Z,17.00
2017-11-13T03:12:56.227Z,8.43
2017-11-13T03:15:23.688Z,4.60
2017-11-13T03:17:51.194Z,11.97
2017-11-13T03:20:18.665Z,6.60
2017-11-13T03:22:46.884Z,6.97
2017-11-13T03:25:14.336Z,9.93
2017-11-13T03:27:41.808Z,7.83
2017-11-13T03:30:09.286Z,10.83
2017-11-13T03:32:36.747Z,10.47
2017-11-13T03:35:04.227Z,4.13
2017-11-13T03:37:32.445Z,5.83
2017-11-13T03:39:59.916Z,5.80
2017-11-13T03:42:27.391Z,7.57
2017-11-13T03:44:54.840Z,8.67
2017-11-13T03:47:22.317Z,7.40
2017-11-13T03:49:50.551Z,7.80
2017-11-13T03:52:18.019Z,9.43
2017-11-13T03:54:45.469Z,9.27
2017-11-13T03:57:12.936Z,9.47
2017-11-13T03:59:40.393Z,7.00
2017-11-13T04:02:09.372Z,9.33
2017-11-13T04:04:36.843Z,9.10
2017-11-13T04:07:04.309Z,10.83
2017-11-13T04:09:32.657Z,5.53
2017-11-13T04:12:00.104Z,10.87
2017-11-13T04:14:27.560Z,7.20
2017-11-13T04:16:55.051Z,9.30
2017-11-13T04:19:22.532Z,11.60
2017-11-13T04:21:50.775Z,6.13
2017-11-13T04:24:18.223Z,7.80
2017-11-13T04:26:45.694Z,7.50
2017-11-13T04:29:13.944Z,6.67
2017-11-13T04:31:41.404Z,9.70
2017-11-13T04:34:08.880Z,6.17
2017-11-13T04:36:36.367Z,10.43
2017-11-13T04:39:03.823Z,9.10
2017-11-13T04:41:31.281Z,10.63
2017-11-13T04:43:58.757Z,10.63
2017-11-13T04:46:26.211Z,11.13
2017-11-13T04:48:53.667Z,11.40
2017-11-13T04:51:21.144Z,4.23
2017-11-13T04:53:48.615Z,8.10
2017-11-13T04:56:17.584Z,11.83
2017-11-13T04:58:45.056Z,8.57
2017-11-13T05:01:12.523Z,6.70
2017-11-13T05:03:39.991Z,7.73
2017-11-13T05:06:07.467Z,10.30
2017-11-13T05:08:35.688Z,11.17
2017-11-13T05:11:03.175Z,11.20
2017-11-13T05:13:30.637Z,9.30
2017-11-13T05:15:58.104Z,9.83
2017-11-13T05:18:26.369Z,16.80
2017-11-13T05:20:53.828Z,5.40
2017-11-13T05:23:21.281Z,9.47
2017-11-13T05:25:48.752Z,14.73
2017-11-13T05:28:16.975Z,8.10
2017-11-13T05:30:44.448Z,8.40
2017-11-13T05:33:11.920Z,8.83
2017-11-13T05:35:39.377Z,13.97
2017-11-13T05:38:06.868Z,12.37
2017-11-13T05:40:35.085Z,5.50
2017-11-13T05:43:02.562Z,14.90
2017-11-13T05:45:30.036Z,9.73
2017-11-13T05:47:58.285Z,11.50
2017-11-13T05:50:25.760Z,12.80
2017-11-13T05:52:53.229Z,22.10
2017-11-13T05:55:21.451Z,14.23
2017-11-13T05:57:48.942Z,12.57
2017-11-13T06:00:16.407Z,15.17
2017-11-13T06:02:43.886Z,11.47
2017-11-13T06:05:11.370Z,12.17
2017-11-13T06:07:38.846Z,15.37
2017-11-13T06:10:06.296Z,17.43
2017-11-13T06:12:33.754Z,19.30
2017-11-13T06:15:01.239Z,16.40
2017-11-13T06:17:28.740Z,10.47
2017-11-13T06:19:56.212Z,16.23
2017-11-13T06:22:23.667Z,11.97
2017-11-13T06:24:51.144Z,20.50
2017-11-13T06:27:18.607Z,20.20
2017-11-13T06:29:46.079Z,14.60
2017-11-13T06:32:13.594Z,23.50
2017-11-13T06:34:41.048Z,13.67
2017-11-13T06:37:08.520Z,16.57
2017-11-13T06:39:35.980Z,21.43
2017-11-13T06:42:03.468Z,21.33
2017-11-13T06:44:30.919Z,26.50
2017-11-13T06:46:58.400Z,16.60
2017-11-13T06:49:26.628Z,12.20
2017-11-13T06:51:54.117Z,23.13
2017-11-13T06:54:22.344Z,13.37
2017-11-13T06:56:49.895Z,12.50
2017-11-13T06:59:17.364Z,33.67
2017-11-13T07:01:44.820Z,26.63
2017-11-13T07:04:12.330Z,21.13
2017-11-13T07:06:40.554Z,25.00
2017-11-13T07:09:08.003Z,22.37
2017-11-13T07:11:36.577Z,23.73
2017-11-13T07:14:04.035Z,24.00
2017-11-13T07:16:31.513Z,15.80
2017-11-13T07:18:58.980Z,20.00
2017-11-13T07:21:26.449Z,24.53
2017-11-13T07:23:53.920Z,24.00
2017-11-13T07:26:21.388Z,21.50
2017-11-13T07:28:48.855Z,21.83
2017-11-13T07:31:16.320Z,32.87
2017-11-13T07:33:43.792Z,28.10
2017-11-13T07:36:11.304Z,21.60
2017-11-13T07:38:39.532Z,22.23
2017-11-13T07:41:07.012Z,16.33
2017-11-13T07:43:34.554Z,10.13
2017-11-13T07:46:02.028Z,29.27
2017-11-13T07:48:29.536Z,26.37
2017-11-13T07:50:57.012Z,16.53
2017-11-13T07:53:24.641Z,14.37
2017-11-13T07:55:52.112Z,25.63
2017-11-13T07:58:19.573Z,19.33
2017-11-13T08:00:47.040Z,22.03
2017-11-13T08:03:14.502Z,17.10
2017-11-13T08:05:41.992Z,20.77
2017-11-13T08:08:09.449Z,13.37
2017-11-13T08:10:36.907Z,17.70
2017-11-13T08:13:04.388Z,11.73
2017-11-13T08:15:32.615Z,12.97
2017-11-13T08:18:00.093Z,17.43
2017-11-13T08:20:27.556Z,11.33
2017-11-13T08:22:55.032Z,17.33
2017-11-13T08:25:23.251Z,20.53
2017-11-13T08:27:50.714Z,13.27
2017-11-13T08:30:18.189Z,18.03
2017-11-13T08:32:45.654Z,13.70
2017-11-13T08:35:13.108Z,17.13
2017-11-13T08:37:41.356Z,16.57
2017-11-13T08:40:08.828Z,20.77
2017-11-13T08:42:36.304Z,17.97
2017-11-13T08:45:03.782Z,15.90
2017-11-13T08:47:31.248Z,19.40
2017-11-13T08:49:58.701Z,18.37
2017-11-13T08:52:26.176Z,13.63
2017-11-13T08:54:53.631Z,19.37
2017-11-13T08:57:21.161Z,17.13
2017-11-13T08:59:49.396Z,24.17
2017-11-13T09:02:16.877Z,13.37
2017-11-13T09:04:44.329Z,17.83
2017-11-13T09:07:11.779Z,8.70
2017-11-13T09:09:40.024Z,21.43
2017-11-13T09:12:07.485Z,15.30
2017-11-13T09:14:34.953Z,19.93
2017-11-13T09:17:03.189Z,12.43
2017-11-13T09:19:30.663Z,14.40
2017-11-13T09:21:58.129Z,10.40
2017-11-13T09:24:25.627Z,17.60
2017-11-13T09:26:53.867Z,12.93
2017-11-13T09:29:21.333Z,18.37
2017-11-13T09:31:48.835Z,13.67
2017-11-13T09:34:16.302Z,14.73
2017-11-13T09:36:43.768Z,13.50
2017-11-13T09:39:11.256Z,16.20
2017-11-13T09:41:38.717Z,13.90
2017-11-13T09:44:06.197Z,15.97
2017-11-13T09:46:34.439Z,12.63
2017-11-13T09:49:01.896Z,16.47
2017-11-13T09:51:29.355Z,12.80
2017-11-13T09:53:56.831Z,12.30
2017-11-13T09:56:24.305Z,8.73
2017-11-13T09:58:52.557Z,8.50
2017-11-13T10:01:20.045Z,12.13
2017-11-13T10:03:47.522Z,13.67
2017-11-13T10:06:14.985Z,12.73
2017-11-13T10:08:42.468Z,13.43
2017-11-13T10:11:09.937Z,13.20
2017-11-13T10:13:37.404Z,13.13
2017-11-13T10:16:04.882Z,18.37
2017-11-13T10:18:32.351Z,11.80
2017-11-13T10:20:59.833Z,15.93
2017-11-13T10:23:27.292Z,13.10
2017-11-13T10:25:54.760Z,18.73
2017-11-13T10:28:22.245Z,14.17
2017-11-13T10:30:49.704Z,11.70
2017-11-13T10:33:17.929Z,9.83
2017-11-13T10:35:45.401Z,16.23
2017-11-13T10:38:12.876Z,14.30
2017-11-13T10:40:40.490Z,15.87
2017-11-13T10:43:07.968Z,11.20
2017-11-13T10:45:35.425Z,10.83
2017-11-13T10:48:02.892Z,10.87
2017-11-13T10:50:30.360Z,8.00
2017-11-13T10:52:57.840Z,9.70
2017-11-13T10:55:26.064Z,11.60
2017-11-13T10:57:53.548Z,10.70
2017-11-13T11:00:21.008Z,17.40
2017-11-13T11:02:49.269Z,13.23
2017-11-13T11:05:16.741Z,15.90
2017-11-13T11:07:44.217Z,10.60
2017-11-13T11:10:12.459Z,10.73
2017-11-13T11:12:39.924Z,10.63
2017-11-13T11:15:10.875Z,22.33
2017-11-13T11:17:41.843Z,12.63
2017-11-13T11:20:13.835Z,13.20
2017-11-13T11:22:43.286Z,17.70
2017-11-13T11:25:10.740Z,13.77
2017-11-13T11:27:38.984Z,11.50
2017-11-13T11:33:25.634Z,15.30
2017-11-13T11:36:09.802Z,14.50
2017-11-13T11:38:38.054Z,10.50
2017-11-13T11:41:08.445Z,10.83
2017-11-13T11:43:35.924Z,13.53
2017-11-13T11:46:04.208Z,9.60
2017-11-13T11:48:33.359Z,16.27
2017-11-13T11:51:00.820Z,9.67
2017-11-13T11:53:28.287Z,16.23
2017-11-13T11:56:12.561Z,17.70
2017-11-13T11:58:40.020Z,8.93
2017-11-13T12:01:07.485Z,10.30
2017-11-13T12:03:34.955Z,9.70
2017-11-13T12:06:03.178Z,15.23
2017-11-13T12:08:30.647Z,8.93
2017-11-13T12:10:58.136Z,11.03
2017-11-13T12:13:25.587Z,14.47
2017-11-13T12:15:53.831Z,10.20
2017-11-13T12:18:21.293Z,17.17
2017-11-13T12:20:48.780Z,13.37
2017-11-13T12:23:16.235Z,14.70
2017-11-13T12:25:44.475Z,8.93
2017-11-13T12:28:11.940Z,17.00
2017-11-13T12:30:39.413Z,11.47
2017-11-13T12:33:06.896Z,10.53
2017-11-13T12:35:35.132Z,16.90
2017-11-13T12:38:02.604Z,21.83
2017-11-13T12:40:30.065Z,16.23
2017-11-13T12:42:58.308Z,17.80
2017-11-13T12:45:25.772Z,12.70
2017-11-13T12:47:53.238Z,10.03
2017-11-13T12:50:20.751Z,11.53
2017-11-13T12:52:48.267Z,13.57
2017-11-13T12:55:15.740Z,15.13
2017-11-13T12:57:43.984Z,16.43
2017-11-13T13:00:11.452Z,12.63
2017-11-13T13:02:38.928Z,15.60
2017-11-13T13:05:07.158Z,16.57
2017-11-13T13:07:34.628Z,16.97
2017-11-13T13:10:02.093Z,11.43
2017-11-13T13:12:29.602Z,11.77
2017-11-13T13:14:57.041Z,12.33
2017-11-13T13:17:24.521Z,17.27
2017-11-13T13:19:51.989Z,9.03
2017-11-13T13:22:19.477Z,9.50
2017-11-13T13:24:48.452Z,11.70
2017-11-13T13:27:15.929Z,12.90
2017-11-13T13:29:43.417Z,16.63
2017-11-13T13:32:10.912Z,16.67
2017-11-13T13:34:38.377Z,12.30
2017-11-13T13:37:05.859Z,11.57
2017-11-13T13:39:34.092Z,14.23
2017-11-13T13:42:01.571Z,14.83
2017-11-13T13:44:29.040Z,11.30
2017-11-13T13:46:56.505Z,13.20
2017-11-13T13:49:23.994Z,14.97
2017-11-13T13:51:51.485Z,14.00
2017-11-13T13:54:18.952Z,18.50
2017-11-13T13:56:46.424Z,12.70
2017-11-13T13:59:13.919Z,17.00
2017-11-13T14:01:41.395Z,15.57
2017-11-13T14:04:11.144Z,13.83
2017-11-13T14:06:39.395Z,14.57
2017-11-13T14:09:06.881Z,6.97
2017-11-13T14:11:34.356Z,11.47
2017-11-13T14:14:02.593Z,17.90
2017-11-13T14:16:30.980Z,20.00
2017-11-13T14:18:58.456Z,11.63
2017-11-13T14:21:26.699Z,11.47
2017-11-13T14:23:54.158Z,11.67
2017-11-13T14:26:21.629Z,8.03
2017-11-13T14:28:49.125Z,15.03
2017-11-13T14:31:16.607Z,13.10
2017-11-13T14:33:44.060Z,13.10
2017-11-13T14:36:11.536Z,12.30
2017-11-13T14:38:39.017Z,10.50
2017-11-13T14:41:06.487Z,12.63
2017-11-13T14:43:33.954Z,14.73
2017-11-13T14:46:01.418Z,15.57
2017-11-13T14:48:29.652Z,12.83
2017-11-13T14:50:57.144Z,19.30
2017-11-13T14:53:24.604Z,12.30
2017-11-13T14:55:52.072Z,11.37
2017-11-13T14:58:19.540Z,20.73
2017-11-13T15:00:47.012Z,25.80
2017-11-13T15:03:14.532Z,17.30
2017-11-13T15:05:41.992Z,10.80
2017-11-13T15:08:10.216Z,10.90
2017-11-13T15:10:38.555Z,13.43
2017-11-13T15:13:06.008Z,16.83
2017-11-13T15:15:33.484Z,18.23
2017-11-13T15:18:00.951Z,17.10
2017-11-13T15:20:28.405Z,16.50
2017-11-13T15:22:55.904Z,14.97
2017-11-13T15:25:23.388Z,13.53
2017-11-13T15:27:50.866Z,15.13
2017-11-13T15:30:18.341Z,15.57
2017-11-13T15:32:45.816Z,9.03
2017-11-13T15:35:14.777Z,9.30
2017-11-13T15:37:42.251Z,18.93
2017-11-13T15:40:09.720Z,11.20
2017-11-13T15:42:37.192Z,17.77
2017-11-13T15:45:05.421Z,18.87
2017-11-13T15:47:32.927Z,17.00
2017-11-13T15:50:01.224Z,15.63
2017-11-13T15:52:28.703Z,19.60
2017-11-13T15:54:56.176Z,11.70
2017-11-13T15:57:23.646Z,23.73
2017-11-13T15:59:51.106Z,21.50
2017-11-13T16:02:18.587Z,13.80
2017-11-13T16:04:47.699Z,14.47
2017-11-13T16:07:15.208Z,17.07
2017-11-13T16:09:42.687Z,10.33
2017-11-13T16:12:10.953Z,12.10
2017-11-13T16:14:38.411Z,10.13
2017-11-13T16:17:05.867Z,15.53
2017-11-13T16:19:34.107Z,14.17
2017-11-13T16:22:01.577Z,14.50
2017-11-13T16:24:29.061Z,15.63
2017-11-13T16:26:56.528Z,16.07
2017-11-13T16:29:24.764Z,10.97
2017-11-13T16:31:52.239Z,12.90
2017-11-13T16:34:19.705Z,15.50
2017-11-13T16:36:47.945Z,14.60
2017-11-13T16:39:15.435Z,14.70
2017-11-13T16:41:42.912Z,10.97
2017-11-13T16:44:11.147Z,6.60
2017-11-13T16:46:38.767Z,14.37
2017-11-13T16:49:06.246Z,7.83
2017-11-13T16:51:33.723Z,13.23
2017-11-13T16:54:01.281Z,11.00
2017-11-13T16:56:28.748Z,12.90
2017-11-13T16:58:56.978Z,9.67
2017-11-13T17:01:24.478Z,8.80
2017-11-13T17:03:52.803Z,12.33
2017-11-13T17:06:20.270Z,9.20
2017-11-13T17:08:47.724Z,8.27
2017-11-13T17:11:15.274Z,11.37
2017-11-13T17:13:42.753Z,11.30
2017-11-13T17:16:10.237Z,8.73
2017-11-13T17:18:37.700Z,12.07
2017-11-13T17:21:05.173Z,6.63
2017-11-13T17:23:34.234Z,14.17
2017-11-13T17:26:01.699Z,11.73
2017-11-13T17:28:29.844Z,11.87
2017-11-13T17:30:57.327Z,11.40
2017-11-13T17:33:24.820Z,13.63
2017-11-13T17:35:53.050Z,12.50
2017-11-13T17:38:20.515Z,10.47
2017-11-13T17:40:47.974Z,14.87
2017-11-13T17:43:15.460Z,11.63
2017-11-13T17:45:45.263Z,17.63
2017-11-13T17:48:13.776Z,14.47
2017-11-13T17:50:41.231Z,10.27
2017-11-13T17:53:09.089Z,9.63
2017-11-13T17:55:36.563Z,17.33
2017-11-13T17:58:04.016Z,9.43
2017-11-13T18:00:31.497Z,24.00
2017-11-13T18:02:58.948Z,13.23
2017-11-13T18:05:26.429Z,12.57
2017-11-13T18:07:53.896Z,11.10
2017-11-13T18:10:22.149Z,14.37
2017-11-13T18:12:49.603Z,18.43
2017-11-13T18:15:17.089Z,15.67
2017-11-13T18:17:45.314Z,18.73
2017-11-13T18:20:12.787Z,15.07
2017-11-13T18:22:40.264Z,16.70
2017-11-13T18:25:07.728Z,13.20
2017-11-13T18:27:35.969Z,15.20
2017-11-13T18:30:03.423Z,18.90
2017-11-13T18:32:30.908Z,17.13
2017-11-13T18:34:58.384Z,20.80
2017-11-13T18:37:26.633Z,16.80
2017-11-13T18:39:54.091Z,19.90
2017-11-13T18:42:21.554Z,15.63
2017-11-13T18:44:49.788Z,15.50
2017-11-13T18:47:17.269Z,20.13
2017-11-13T18:49:44.765Z,24.10
2017-11-13T18:52:12.220Z,23.70
2017-11-13T18:54:39.696Z,22.37
2017-11-13T18:57:07.172Z,14.47
2017-11-13T18:59:34.655Z,20.90
2017-11-13T19:02:02.138Z,13.63
2017-11-13T19:04:30.406Z,26.07
2017-11-13T19:06:58.655Z,19.77
2017-11-13T19:09:26.116Z,15.40
2017-11-13T19:11:53.597Z,15.50
2017-11-13T19:14:21.852Z,22.00
2017-11-13T19:16:49.320Z,15.70
2017-11-13T19:19:16.792Z,26.93
2017-11-13T19:21:45.008Z,15.50
2017-11-13T19:24:12.488Z,24.23
2017-11-13T19:26:39.972Z,21.80
2017-11-13T19:29:08.208Z,18.27
2017-11-13T19:31:35.695Z,20.50
2017-11-13T19:34:03.920Z,22.50
2017-11-13T19:36:31.385Z,20.37
2017-11-13T19:38:58.868Z,22.63
2017-11-13T19:41:26.360Z,21.23
2017-11-13T19:43:53.844Z,20.07
2017-11-13T19:46:21.325Z,28.13
2017-11-13T19:48:48.805Z,25.83
2017-11-13T19:51:16.285Z,32.03
2017-11-13T19:53:44.523Z,22.87
2017-11-13T19:56:11.997Z,20.60
2017-11-13T19:58:40.256Z,26.70
2017-11-13T20:01:07.731Z,30.23
2017-11-13T20:03:35.217Z,23.93
2017-11-13T20:06:02.676Z,27.23
2017-11-13T20:08:30.157Z,33.53
2017-11-13T20:10:57.674Z,20.40
2017-11-13T20:13:25.913Z,29.87
2017-11-13T20:15:53.388Z,23.93
2017-11-13T20:18:21.695Z,23.70
2017-11-13T20:20:49.161Z,24.83
2017-11-13T20:23:16.645Z,19.77
2017-11-13T20:25:44.110Z,26.40
2017-11-13T20:28:11.570Z,27.23
2017-11-13T20:30:39.049Z,21.33
2017-11-13T20:33:07.313Z,24.97
2017-11-13T20:35:34.835Z,16.27
2017-11-13T20:38:02.323Z,16.70
2017-11-13T20:40:29.792Z,24.87
2017-11-13T20:42:57.272Z,24.30
2017-11-13T20:45:25.504Z,33.13
2017-11-13T20:47:53.027Z,30.67
2017-11-13T20:50:20.480Z,24.03
2017-11-13T20:52:48.032Z,28.17
2017-11-13T20:55:15.532Z,18.80
2017-11-13T20:57:43.012Z,24.97
2017-11-13T21:00:11.343Z,31.60
2017-11-13T21:02:38.834Z,26.50
2017-11-13T21:05:06.344Z,27.20
2017-11-13T21:07:33.805Z,21.10
2017-11-13T21:10:01.332Z,24.93
2017-11-13T21:12:29.685Z,25.40
2017-11-13T21:14:57.140Z,24.70
2017-11-13T21:17:24.629Z,26.50
2017-11-13T21:19:52.881Z,26.17
2017-11-13T21:22:20.344Z,20.50
2017-11-13T21:24:48.588Z,18.33
2017-11-13T21:27:16.042Z,26.43
2017-11-13T21:29:43.507Z,17.50
2017-11-13T21:32:10.991Z,23.53
2017-11-13T21:34:39.227Z,19.50
2017-11-13T21:37:06.706Z,20.50
2017-11-13T21:39:34.185Z,22.70
2017-11-13T21:42:02.411Z,20.40
2017-11-13T21:44:29.912Z,22.80
2017-11-13T21:46:58.152Z,20.40
2017-11-13T21:49:25.619Z,25.33
2017-11-13T21:51:53.121Z,20.27
2017-11-13T21:54:20.571Z,24.00
2017-11-13T21:56:48.044Z,31.30
2017-11-13T21:59:15.511Z,20.03
2017-11-13T22:01:42.972Z,25.63
2017-11-13T22:04:10.468Z,24.77
2017-11-13T22:06:37.919Z,23.13
2017-11-13T22:09:05.403Z,23.57
2017-11-13T22:11:32.869Z,25.43
2017-11-13T22:14:00.325Z,26.00
2017-11-13T22:16:27.810Z,24.30
2017-11-13T22:18:55.285Z,36.20
2017-11-13T22:21:22.739Z,24.27
2017-11-13T22:23:50.200Z,21.40
2017-11-13T22:26:17.707Z,16.60
2017-11-13T22:28:45.924Z,22.03
2017-11-13T22:31:13.427Z,14.90
2017-11-13T22:33:41.647Z,22.83
2017-11-13T22:36:09.105Z,17.93
2017-11-13T22:38:36.592Z,17.03
2017-11-13T22:41:04.059Z,19.77
2017-11-13T22:43:31.531Z,13.90
2017-11-13T22:45:59.753Z,15.60
2017-11-13T22:48:27.216Z,15.83
2017-11-13T22:50:54.716Z,15.00
2017-11-13T22:53:22.960Z,16.87
2017-11-13T22:55:50.446Z,17.60
2017-11-13T22:58:18.695Z,16.70
2017-11-13T23:00:46.148Z,17.03
2017-11-13T23:03:13.603Z,17.53
2017-11-13T23:05:41.086Z,27.53
2017-11-13T23:08:09.313Z,24.63
2017-11-13T23:10:36.795Z,33.90
2017-11-13T23:13:04.259Z,24.17
2017-11-13T23:15:31.728Z,25.53
2017-11-13T23:17:59.967Z,26.13
2017-11-13T23:20:27.444Z,22.90
2017-11-13T23:22:54.901Z,25.40
2017-11-13T23:25:22.377Z,26.57
2017-11-13T23:27:50.637Z,18.47
2017-11-13T23:30:18.099Z,18.83
2017-11-13T23:32:45.564Z,17.57
2017-11-13T23:35:13.799Z,25.80
2017-11-13T23:37:41.296Z,22.77
2017-11-13T23:40:09.534Z,15.30
2017-11-13T23:42:37.005Z,27.43
2017-11-13T23:45:05.250Z,18.03
2017-11-13T23:47:32.726Z,20.80
2017-11-13T23:50:00.204Z,30.67
2017-11-13T23:52:28.468Z,23.83
2017-11-13T23:54:56.693Z,26.67
2017-11-13T23:57:24.180Z,26.63
2017-11-13T23:59:51.643Z,37.03
